TimeMST,TemperatureF,Dew PointF,Humidity,Sea Level PressureIn,VisibilityMPH,Wind Direction,Wind SpeedMPH,Gust SpeedMPH,PrecipitationIn,Events,Conditions,WindDirDegrees,DateUTC
12:54 AM,21.0,9.0,60,30.07,10.0,SW,11.5,-,N/A,,Clear,230,2013-01-22 07:54:00
1:54 AM,25.0,9.0,51,30.07,10.0,WSW,11.5,-,N/A,,Clear,240,2013-01-22 08:54:00
2:54 AM,24.1,9.0,53,30.09,10.0,WSW,10.4,-,N/A,,Clear,250,2013-01-22 09:54:00
3:54 AM,25.0,10.0,53,30.07,10.0,SW,15.0,-,N/A,,Clear,230,2013-01-22 10:54:00
4:54 AM,23.0,9.0,55,30.11,10.0,WSW,9.2,-,N/A,,Clear,240,2013-01-22 11:54:00
5:54 AM,23.0,9.0,55,30.10,10.0,SW,12.7,-,N/A,,Clear,230,2013-01-22 12:54:00
6:54 AM,30.0,8.1,40,30.09,10.0,West,5.8,-,N/A,,Clear,260,2013-01-22 13:54:00
7:54 AM,19.9,7.0,57,30.14,10.0,SW,12.7,-,N/A,,Clear,230,2013-01-22 14:54:00
8:54 AM,24.1,10.0,55,30.14,10.0,SW,15.0,-,N/A,,Clear,220,2013-01-22 15:54:00
9:54 AM,28.9,12.0,49,30.14,10.0,SW,11.5,-,N/A,,Clear,220,2013-01-22 16:54:00
10:54 AM,33.1,15.1,48,30.14,10.0,SW,8.1,-,N/A,,Clear,230,2013-01-22 17:54:00
11:54 AM,39.0,14.0,36,30.12,10.0,Calm,Calm,-,N/A,,Clear,0,2013-01-22 18:54:00
12:54 PM,37.9,17.1,43,30.10,10.0,SW,4.6,-,N/A,,Clear,230,2013-01-22 19:54:00
1:54 PM,39.0,19.0,45,30.08,10.0,SW,6.9,-,N/A,,Clear,230,2013-01-22 20:54:00
2:54 PM,39.9,18.0,41,30.08,10.0,SW,8.1,-,N/A,,Clear,230,2013-01-22 21:54:00
3:54 PM,41.0,16.0,36,30.07,10.0,SSW,5.8,-,N/A,,Clear,200,2013-01-22 22:54:00
4:54 PM,34.0,18.0,52,30.09,10.0,SW,8.1,-,N/A,,Clear,220,2013-01-22 23:54:00
5:54 PM,33.1,17.1,52,30.09,10.0,SW,9.2,-,N/A,,Clear,230,2013-01-23 00:54:00
6:54 PM,32.0,15.1,50,30.07,10.0,North,-9999.0,-,N/A,,Clear,0,2013-01-23 01:54:00
7:54 PM,30.0,16.0,56,30.10,10.0,ENE,3.5,-,N/A,,Clear,70,2013-01-23 02:54:00
8:54 PM,28.9,16.0,58,30.09,10.0,ESE,8.1,-,N/A,,Clear,120,2013-01-23 03:54:00
9:54 PM,30.0,16.0,56,30.08,10.0,ESE,8.1,-,N/A,,Clear,120,2013-01-23 04:54:00
10:54 PM,30.0,17.1,59,30.09,10.0,ENE,5.8,-,N/A,,Clear,70,2013-01-23 05:54:00
11:54 PM,28.0,18.0,66,30.09,10.0,East,4.6,-,N/A,,Clear,80,2013-01-23 06:54:00